Igarka, Russia
Current Conditions -  °F | °C
As of 5:00 AM on Sunday 21 Dec 2014 (Local Time) from USNN Reporting Station
Light Snow Light Snow  
Wind Chill: 11°   Ceiling: 2500
Heat Index: 18°   Visibility: 4mi
Dew Point: 14°   Wind: 4mph
Humidity: 86%   Direction: NA
Pressure: 29.85"   Gusts: NA
Location:  67.47°N, 86.58°E
Report Text: USNN 202200Z VRB02MPS 6000 -SN OVC025 M08/M10 Q1011 TEMPO 1500SN RMK QFE753 21450539
Loading
Personal Weather Stations






























Interactive Weather Map New forecast layout! Learn more

10-Day Weather Forecast

Advertisements
Track Severe Weather on mobile